Time;durP1;ratioP1;P1;durP2;ratioP2;P2;SDS_P1;SDS_P2;PMS_P1;PMS_P2;Temp;Humidity;BMP_temperature;BMP_pressure;BME280_temperature;BME280_humidity;BME280_pressure;Samples;Min_cycle;Max_cycle;Signal;HPM_P1;HPM_P2
2022/01/17 00:56:21;;;;;;;75.30;38.33;;;;;;;;;;5000339;28;20337;-93
2022/01/17 00:58:47;;;;;;;75.63;39.38;;;;;;;;;;4982767;28;20018;-93
2022/01/17 01:01:14;;;;;;;74.35;39.97;;;;;;;;;;4990679;28;20074;-92
2022/01/17 01:03:40;;;;;;;77.72;40.20;;;;;;;;;;4980338;28;20468;-93
2022/01/17 01:06:06;;;;;;;89.68;47.47;;;;;;;;;;4980544;28;20042;-94
2022/01/17 01:08:32;;;;;;;99.38;45.33;;;;;;;;;;4980070;28;20034;-93
2022/01/17 01:10:58;;;;;;;95.97;43.15;;;;;;;;;;4980430;28;20155;-94
2022/01/17 01:13:29;;;;;;;82.72;43.72;;;;;;;;;;4963676;28;20058;-93
2022/01/17 01:29:55;;;;;;;70.80;38.33;;;;;;;;;;4999612;28;20029;-93
2022/01/17 01:32:25;;;;;;;72.55;39.58;;;;;;;;;;4999510;28;20101;-92
2022/01/17 01:34:54;;;;;;;77.88;39.58;;;;;;;;;;4999619;28;20073;-93
2022/01/17 01:40:24;;;;;;;78.40;43.28;;;;;;;;;;4979738;28;20098;-92
2022/01/17 01:42:52;;;;;;;79.80;41.70;;;;;;;;;;4979584;28;20023;-94
2022/01/17 01:45:19;;;;;;;75.65;41.80;;;;;;;;;;4963241;28;20038;-92
2022/01/17 01:47:46;;;;;;;72.68;40.75;;;;;;;;;;4960169;29;20027;-95
2022/01/17 01:50:12;;;;;;;74.82;42.10;;;;;;;;;;4960003;29;20425;-93
2022/01/17 01:52:41;;;;;;;70.82;41.80;;;;;;;;;;4943272;29;20027;-92
2022/01/17 01:55:10;;;;;;;75.47;42.25;;;;;;;;;;4943164;29;20023;-93
2022/01/17 01:57:36;;;;;;;75.07;42.28;;;;;;;;;;4943291;29;20078;-93
2022/01/17 02:00:04;;;;;;;71.32;41.45;;;;;;;;;;4960166;29;20051;-93
2022/01/17 02:02:30;;;;;;;67.40;39.42;;;;;;;;;;4943079;29;20098;-92
2022/01/17 02:04:56;;;;;;;72.60;40.88;;;;;;;;;;4964611;28;20034;-92
2022/01/17 02:13:30;;;;;;;77.70;42.47;;;;;;;;;;4979772;28;20494;-92
2022/01/17 02:16:05;;;;;;;74.43;42.13;;;;;;;;;;4979378;28;20019;-91
2022/01/17 02:18:31;;;;;;;73.63;41.88;;;;;;;;;;4978893;28;20027;-92
2022/01/17 02:21:18;;;;;;;70.63;39.85;;;;;;;;;;4979068;28;20050;-93
2022/01/17 02:23:47;;;;;;;76.90;43.20;;;;;;;;;;4979171;28;20031;-94
2022/01/17 02:26:14;;;;;;;73.95;43.03;;;;;;;;;;4962150;28;20082;-92
2022/01/17 02:28:45;;;;;;;79.75;44.30;;;;;;;;;;4978825;28;20030;-93
2022/01/17 02:31:11;;;;;;;79.72;45.35;;;;;;;;;;4969571;28;20078;-92
2022/01/17 02:33:37;;;;;;;83.30;44.40;;;;;;;;;;4959453;29;20031;-94
2022/01/17 02:36:05;;;;;;;79.90;46.13;;;;;;;;;;4959870;29;20106;-94
2022/01/17 04:52:27;;;;;;;72.95;42.22;;;;;;;;;;5013058;23;20061;-93
2022/01/17 04:54:55;;;;;;;77.97;43.47;;;;;;;;;;4963785;28;20109;-93
2022/01/17 04:57:21;;;;;;;88.95;48.72;;;;;;;;;;4963299;28;20026;-93
2022/01/17 04:59:48;;;;;;;80.35;45.60;;;;;;;;;;4980690;28;20023;-93
2022/01/17 05:02:14;;;;;;;75.80;44.08;;;;;;;;;;4963323;28;20117;-91
2022/01/17 05:04:40;;;;;;;79.47;43.95;;;;;;;;;;4980306;28;20031;-93
2022/01/17 05:07:06;;;;;;;78.55;44.40;;;;;;;;;;4963222;28;20061;-94
2022/01/17 05:09:33;;;;;;;79.78;45.30;;;;;;;;;;4980240;28;20031;-93
2022/01/17 05:11:59;;;;;;;87.43;48.42;;;;;;;;;;4963129;28;20065;-93
2022/01/17 05:14:26;;;;;;;88.18;48.00;;;;;;;;;;4966958;28;20035;-95
2022/01/17 05:17:01;;;;;;;85.00;48.22;;;;;;;;;;4944252;29;20407;-94
2022/01/17 05:22:12;;;;;;;132.50;64.18;;;;;;;;;;4960961;29;20090;-94
2022/01/17 05:30:30;;;;;;;76.50;44.38;;;;;;;;;;5027471;23;20342;-95
2022/01/17 05:32:58;;;;;;;75.70;42.28;;;;;;;;;;4962766;28;20031;-95
2022/01/17 05:35:24;;;;;;;78.82;45.08;;;;;;;;;;4962921;28;20031;-94
2022/01/17 05:37:51;;;;;;;85.60;46.20;;;;;;;;;;4976973;28;20027;-95
2022/01/17 05:43:21;;;;;;;83.30;44.42;;;;;;;;;;4961149;29;20046;-94
2022/01/17 05:45:47;;;;;;;82.72;45.58;;;;;;;;;;4943457;29;20030;-93
2022/01/17 05:48:13;;;;;;;81.53;45.95;;;;;;;;;;4943419;29;20031;-93
2022/01/17 05:50:39;;;;;;;81.65;46.10;;;;;;;;;;4960244;29;20031;-93
2022/01/17 05:53:05;;;;;;;81.70;46.28;;;;;;;;;;4959889;29;20023;-93
2022/01/17 05:55:31;;;;;;;80.13;45.97;;;;;;;;;;4959387;28;20058;-94
2022/01/17 05:57:59;;;;;;;77.07;43.65;;;;;;;;;;4960038;29;20402;-93
2022/01/17 06:00:25;;;;;;;73.90;43.05;;;;;;;;;;4960469;29;20032;-93
2022/01/17 06:02:52;;;;;;;83.63;45.42;;;;;;;;;;4960146;29;20027;-93
2022/01/17 06:05:18;;;;;;;80.10;45.72;;;;;;;;;;4960323;29;20461;-94
2022/01/17 06:07:44;;;;;;;81.10;46.63;;;;;;;;;;4942992;29;20406;-93
2022/01/17 06:10:10;;;;;;;89.30;51.28;;;;;;;;;;4943091;29;20023;-93
2022/01/17 06:12:36;;;;;;;92.28;53.78;;;;;;;;;;4960032;29;20034;-94
2022/01/17 06:15:02;;;;;;;94.90;52.05;;;;;;;;;;4960049;29;20067;-95
2022/01/17 06:17:28;;;;;;;88.03;50.25;;;;;;;;;;4960092;29;20023;-94
2022/01/17 06:22:39;;;;;;;97.07;53.38;;;;;;;;;;4960601;29;20163;-91
2022/01/17 07:34:59;;;;;;;102.10;56.00;;;;;;;;;;4983180;23;20067;-93
2022/01/17 07:37:25;;;;;;;116.75;62.42;;;;;;;;;;4926802;29;20031;-92
2022/01/17 07:42:55;;;;;;;105.32;58.60;;;;;;;;;;4943540;29;20176;-91
2022/01/17 07:45:22;;;;;;;107.18;58.25;;;;;;;;;;4943310;29;20422;-91
2022/01/17 07:50:19;;;;;;;96.97;55.53;;;;;;;;;;4943285;29;20047;-91
2022/01/17 07:52:47;;;;;;;100.47;54.80;;;;;;;;;;4926552;29;20111;-92
2022/01/17 07:55:50;;;;;;;102.85;58.05;;;;;;;;;;4926420;29;20032;-92
2022/01/17 07:58:16;;;;;;;105.10;57.65;;;;;;;;;;4942949;29;20047;-92
2022/01/17 08:00:42;;;;;;;109.18;59.08;;;;;;;;;;4943344;29;20020;-92
2022/01/17 08:03:09;;;;;;;102.85;58.47;;;;;;;;;;4925972;29;20036;-93
2022/01/17 08:05:35;;;;;;;100.65;57.50;;;;;;;;;;4925990;29;20051;-93
2022/01/17 08:08:01;;;;;;;108.13;60.35;;;;;;;;;;4942895;29;20036;-93
2022/01/17 08:13:31;;;;;;;114.88;59.78;;;;;;;;;;4943251;29;20039;-93
2022/01/17 08:15:57;;;;;;;100.88;56.88;;;;;;;;;;4926198;29;20366;-93
2022/01/17 08:18:23;;;;;;;112.35;62.58;;;;;;;;;;4925186;29;20026;-93
2022/01/17 08:20:49;;;;;;;99.97;57.78;;;;;;;;;;4942701;29;20027;-93
2022/01/17 08:23:15;;;;;;;114.97;63.50;;;;;;;;;;4926226;29;20046;-92
2022/01/17 08:28:45;;;;;;;124.40;67.75;;;;;;;;;;4942623;29;20538;-93
2022/01/17 08:31:11;;;;;;;108.18;61.03;;;;;;;;;;4941734;29;20066;-93
2022/01/17 08:33:37;;;;;;;109.32;62.15;;;;;;;;;;4942453;29;20334;-93
2022/01/17 08:36:03;;;;;;;121.40;66.32;;;;;;;;;;4935976;29;20024;-93
2022/01/17 08:38:30;;;;;;;114.43;65.45;;;;;;;;;;4900756;29;20032;-92
2022/01/17 08:44:00;;;;;;;128.65;67.50;;;;;;;;;;4923656;29;20423;-92
2022/01/17 08:46:27;;;;;;;131.48;68.80;;;;;;;;;;4923495;29;20039;-93
2022/01/17 08:48:53;;;;;;;131.73;68.28;;;;;;;;;;4923235;29;20032;-92
2022/01/17 08:51:19;;;;;;;133.55;71.47;;;;;;;;;;4906672;29;20080;-93
2022/01/17 08:53:45;;;;;;;133.55;71.25;;;;;;;;;;4906397;29;20036;-91
2022/01/17 08:59:15;;;;;;;110.78;62.13;;;;;;;;;;4942329;29;20530;-94
2022/01/17 09:01:41;;;;;;;110.40;61.13;;;;;;;;;;4925270;29;20059;-93
2022/01/17 09:04:07;;;;;;;103.60;60.30;;;;;;;;;;4940709;29;20036;-92
2022/01/17 09:06:33;;;;;;;112.45;61.65;;;;;;;;;;4941858;29;20036;-92
2022/01/17 09:08:59;;;;;;;120.55;64.55;;;;;;;;;;4941848;29;20055;-92
2022/01/17 09:11:26;;;;;;;108.68;60.70;;;;;;;;;;4925237;29;20039;-94
2022/01/17 09:13:52;;;;;;;114.30;60.45;;;;;;;;;;4928071;29;20407;-93
2022/01/17 09:16:18;;;;;;;118.40;64.95;;;;;;;;;;4906320;29;20059;-93
2022/01/17 09:18:44;;;;;;;113.78;64.18;;;;;;;;;;4916176;29;20403;-93
2022/01/17 09:21:10;;;;;;;118.03;64.07;;;;;;;;;;4925074;29;20028;-94
2022/01/17 09:23:37;;;;;;;130.13;67.10;;;;;;;;;;4906358;29;20076;-94
2022/01/17 09:26:04;;;;;;;118.90;64.82;;;;;;;;;;4924941;29;20039;-91
2022/01/17 09:28:30;;;;;;;103.22;57.60;;;;;;;;;;4941230;29;20020;-92
2022/01/17 09:30:56;;;;;;;107.32;62.03;;;;;;;;;;4924789;29;20051;-93
2022/01/17 09:33:22;;;;;;;107.88;59.53;;;;;;;;;;4924478;29;20312;-90
2022/01/17 09:35:48;;;;;;;107.97;61.67;;;;;;;;;;4924739;29;20337;-91
2022/01/17 09:38:14;;;;;;;114.72;63.78;;;;;;;;;;4941178;29;20024;-91
2022/01/17 09:40:40;;;;;;;120.95;67.35;;;;;;;;;;4941548;29;20403;-91
2022/01/17 09:43:06;;;;;;;114.25;63.70;;;;;;;;;;4941384;29;20114;-90
2022/01/17 09:45:32;;;;;;;113.55;62.08;;;;;;;;;;4924526;29;20036;-92
2022/01/17 09:48:01;;;;;;;104.18;59.58;;;;;;;;;;4941061;29;20030;-91
2022/01/17 09:50:45;;;;;;;100.25;57.20;;;;;;;;;;4924191;29;20032;-91
2022/01/17 09:53:11;;;;;;;105.35;59.85;;;;;;;;;;4923873;29;20369;-90
2022/01/17 09:55:37;;;;;;;145.02;76.97;;;;;;;;;;4941002;29;20043;-90
2022/01/17 09:58:08;;;;;;;139.93;75.18;;;;;;;;;;4924210;29;20031;-90
2022/01/17 10:00:35;;;;;;;125.30;66.65;;;;;;;;;;4940748;29;20106;-90
2022/01/17 10:03:05;;;;;;;103.72;59.67;;;;;;;;;;4941031;29;20045;-90
2022/01/17 10:05:32;;;;;;;106.68;61.08;;;;;;;;;;4923729;29;20067;-90
2022/01/17 10:08:00;;;;;;;105.47;61.85;;;;;;;;;;4941142;29;20028;-90
2022/01/17 10:10:48;;;;;;;97.30;55.97;;;;;;;;;;4923971;29;20036;-89
2022/01/17 10:13:23;;;;;;;103.53;58.25;;;;;;;;;;4940717;29;20058;-90
2022/01/17 10:15:56;;;;;;;81.28;48.83;;;;;;;;;;4940651;29;20486;-90
2022/01/17 10:18:24;;;;;;;77.43;46.33;;;;;;;;;;4940785;29;20071;-91
2022/01/17 10:20:56;;;;;;;77.88;45.55;;;;;;;;;;4924131;29;20111;-90
2022/01/17 10:23:42;;;;;;;70.33;44.87;;;;;;;;;;4940611;29;20127;-92
2022/01/17 10:26:21;;;;;;;74.63;45.60;;;;;;;;;;4940628;29;20325;-91
2022/01/17 10:37:08;;;;;;;74.28;43.22;;;;;;;;;;4882373;29;20133;-90
2022/01/17 10:39:55;;;;;;;69.85;39.78;;;;;;;;;;4882065;29;20065;-90
2022/01/17 10:42:22;;;;;;;71.40;41.88;;;;;;;;;;4882114;29;20049;-90
2022/01/17 10:44:49;;;;;;;73.15;43.63;;;;;;;;;;4866708;29;20052;-90
2022/01/17 10:47:22;;;;;;;66.50;41.25;;;;;;;;;;4866947;29;20432;-90
2022/01/17 10:49:59;;;;;;;68.10;40.05;;;;;;;;;;4867435;29;20048;-90
2022/01/17 10:52:31;;;;;;;69.82;43.88;;;;;;;;;;4882004;29;20036;-89
2022/01/17 10:54:58;;;;;;;76.78;43.63;;;;;;;;;;4882041;29;20029;-90
2022/01/17 10:57:24;;;;;;;78.55;43.88;;;;;;;;;;4882074;29;20034;-89
2022/01/17 10:59:52;;;;;;;63.72;39.33;;;;;;;;;;4882187;29;20480;-89
2022/01/17 11:02:18;;;;;;;64.28;39.78;;;;;;;;;;4882121;29;20036;-90
2022/01/17 11:04:49;;;;;;;62.25;37.38;;;;;;;;;;4878859;29;20046;-90
2022/01/17 11:07:15;;;;;;;60.67;37.47;;;;;;;;;;4866151;29;20029;-91
2022/01/17 11:09:42;;;;;;;57.55;35.35;;;;;;;;;;4884783;29;20115;-89
2022/01/17 11:12:12;;;;;;;65.63;36.40;;;;;;;;;;4918277;29;20039;-91
2022/01/17 11:14:38;;;;;;;70.88;36.85;;;;;;;;;;4909186;29;20032;-90
2022/01/17 11:17:25;;;;;;;66.63;36.47;;;;;;;;;;4921108;29;20052;-90
2022/01/17 11:20:07;;;;;;;79.43;44.13;;;;;;;;;;4921016;29;20024;-90
2022/01/17 11:22:43;;;;;;;61.47;37.40;;;;;;;;;;4921274;29;20029;-91
2022/01/17 11:25:10;;;;;;;59.15;35.38;;;;;;;;;;4925960;29;20032;-89
2022/01/17 11:27:37;;;;;;;76.90;44.63;;;;;;;;;;4919198;29;20450;-89
2022/01/17 11:30:04;;;;;;;373.00;125.78;;;;;;;;;;4918684;29;20027;-90
2022/01/17 11:32:31;;;;;;;64.28;38.10;;;;;;;;;;4939952;29;20023;-89
2022/01/17 11:34:58;;;;;;;84.20;42.88;;;;;;;;;;4936520;29;20059;-89
2022/01/17 11:37:25;;;;;;;70.00;38.83;;;;;;;;;;4940149;29;20015;-90
2022/01/17 11:39:52;;;;;;;107.97;50.05;;;;;;;;;;4923093;29;20466;-89
2022/01/17 11:42:32;;;;;;;56.00;31.63;;;;;;;;;;4935363;29;20046;-89
2022/01/17 11:44:59;;;;;;;48.83;29.40;;;;;;;;;;4939889;29;20036;-89
2022/01/17 11:47:43;;;;;;;54.28;31.25;;;;;;;;;;4939971;29;20055;-91
2022/01/17 11:50:28;;;;;;;249.82;98.55;;;;;;;;;;4939921;29;20031;-90
2022/01/17 11:52:54;;;;;;;324.88;122.75;;;;;;;;;;4941034;29;20497;-89
2022/01/17 11:55:42;;;;;;;52.10;30.98;;;;;;;;;;4942964;29;20024;-90
2022/01/17 11:58:27;;;;;;;48.58;29.45;;;;;;;;;;4926288;29;20067;-90
2022/01/17 12:01:02;;;;;;;258.60;116.25;;;;;;;;;;4926375;29;20024;-89
2022/01/17 12:03:31;;;;;;;150.57;74.07;;;;;;;;;;4943267;29;20070;-89
2022/01/17 12:06:04;;;;;;;135.00;65.90;;;;;;;;;;4942868;29;20032;-90
2022/01/17 12:08:31;;;;;;;100.43;51.65;;;;;;;;;;4943124;29;20038;-89
2022/01/17 12:11:01;;;;;;;49.97;29.88;;;;;;;;;;4942990;29;20031;-89
2022/01/17 12:13:38;;;;;;;45.53;27.38;;;;;;;;;;4942984;29;20035;-88
2022/01/17 12:18:42;;;;;;;99.60;51.08;;;;;;;;;;4942805;29;20032;-89
2022/01/17 12:21:18;;;;;;;76.72;40.70;;;;;;;;;;4943048;29;20027;-89
2022/01/17 12:23:44;;;;;;;54.65;30.20;;;;;;;;;;4926001;29;20028;-88
2022/01/17 12:26:30;;;;;;;55.00;30.42;;;;;;;;;;4942517;29;20028;-89
2022/01/17 12:28:57;;;;;;;48.72;28.17;;;;;;;;;;4942761;29;20047;-88
2022/01/17 12:31:44;;;;;;;48.10;29.33;;;;;;;;;;4942827;29;20040;-89
2022/01/17 12:34:16;;;;;;;60.63;34.67;;;;;;;;;;4925254;29;20493;-89
2022/01/17 12:36:42;;;;;;;41.63;25.27;;;;;;;;;;4941893;29;20086;-89
2022/01/17 12:39:12;;;;;;;44.45;25.65;;;;;;;;;;4925331;29;20046;-90
2022/01/17 12:41:44;;;;;;;47.65;27.42;;;;;;;;;;4942299;29;20028;-88
2022/01/17 12:44:14;;;;;;;46.17;24.80;;;;;;;;;;4942498;29;20323;-87
2022/01/17 12:46:42;;;;;;;48.20;26.77;;;;;;;;;;4942231;29;20035;-89
2022/01/17 12:49:08;;;;;;;45.17;26.23;;;;;;;;;;4942311;29;20032;-87
2022/01/17 12:51:35;;;;;;;68.97;31.75;;;;;;;;;;4942482;29;20035;-88
2022/01/17 12:54:02;;;;;;;80.20;37.08;;;;;;;;;;4942188;29;20031;-88
2022/01/17 12:56:30;;;;;;;46.30;27.90;;;;;;;;;;4941852;29;20028;-89
2022/01/17 12:59:03;;;;;;;103.68;42.63;;;;;;;;;;4941886;29;20020;-87
2022/01/17 13:01:30;;;;;;;60.92;32.67;;;;;;;;;;4942027;29;20023;-87
2022/01/17 13:04:04;;;;;;;159.50;59.00;;;;;;;;;;4941821;29;20039;-88
2022/01/17 13:06:31;;;;;;;613.97;253.07;;;;;;;;;;4942030;29;20115;-88
2022/01/17 13:08:59;;;;;;;440.13;184.98;;;;;;;;;;4925175;29;20296;-87
2022/01/17 13:11:28;;;;;;;63.45;34.45;;;;;;;;;;4941935;29;20028;-88
2022/01/17 13:13:58;;;;;;;61.92;33.75;;;;;;;;;;4941442;29;20031;-87
2022/01/17 13:16:25;;;;;;;198.25;79.07;;;;;;;;;;4925073;29;20047;-88
2022/01/17 13:18:52;;;;;;;94.15;44.03;;;;;;;;;;4941666;29;20020;-86
2022/01/17 13:21:18;;;;;;;92.25;42.40;;;;;;;;;;4941593;29;20032;-87
2022/01/17 13:23:55;;;;;;;151.57;66.88;;;;;;;;;;4941532;29;20416;-87
2022/01/17 13:26:30;;;;;;;79.13;37.15;;;;;;;;;;4941392;29;20027;-87
2022/01/17 13:28:57;;;;;;;68.93;33.83;;;;;;;;;;4941576;29;20350;-87
2022/01/17 13:31:25;;;;;;;60.63;32.88;;;;;;;;;;4941489;29;20028;-87
2022/01/17 13:33:51;;;;;;;52.65;27.98;;;;;;;;;;4912413;29;20115;-87
2022/01/17 13:36:21;;;;;;;66.60;33.72;;;;;;;;;;4924512;29;20047;-87
2022/01/17 13:39:10;;;;;;;55.45;28.30;;;;;;;;;;4924737;29;20031;-86
2022/01/17 13:41:38;;;;;;;111.10;45.08;;;;;;;;;;4882767;29;20229;-87
2022/01/17 13:44:05;;;;;;;65.45;30.88;;;;;;;;;;4882887;29;20128;-87
2022/01/17 13:46:31;;;;;;;153.20;64.40;;;;;;;;;;4882827;29;20085;-87
2022/01/17 13:48:58;;;;;;;46.00;27.05;;;;;;;;;;4867358;29;20049;-87
2022/01/17 13:51:25;;;;;;;67.05;33.55;;;;;;;;;;4867392;29;20033;-88
2022/01/17 13:53:55;;;;;;;42.85;24.40;;;;;;;;;;4882913;29;20043;-90
2022/01/17 13:56:22;;;;;;;52.75;27.48;;;;;;;;;;4882829;29;20028;-93
2022/01/17 13:58:51;;;;;;;54.13;27.38;;;;;;;;;;4882725;29;20037;-86
2022/01/17 14:01:17;;;;;;;51.53;22.75;;;;;;;;;;4882729;29;20463;-86
2022/01/17 14:03:44;;;;;;;35.70;21.80;;;;;;;;;;4864532;29;20081;-87
2022/01/17 14:06:11;;;;;;;69.30;34.05;;;;;;;;;;4875715;29;20045;-87
2022/01/17 14:08:40;;;;;;;45.20;25.17;;;;;;;;;;4848657;29;20038;-87
2022/01/17 14:11:08;;;;;;;40.80;24.77;;;;;;;;;;4864044;29;20033;-87
2022/01/17 14:13:37;;;;;;;55.65;28.42;;;;;;;;;;4848491;29;20340;-87
2022/01/17 14:16:13;;;;;;;103.85;43.85;;;;;;;;;;4863351;29;20022;-87
2022/01/17 14:18:43;;;;;;;41.13;25.80;;;;;;;;;;4883873;29;20039;-86
2022/01/17 14:21:20;;;;;;;93.75;46.30;;;;;;;;;;4906811;29;20044;-87
2022/01/17 14:23:46;;;;;;;162.57;63.17;;;;;;;;;;4904774;29;20035;-86
2022/01/17 14:26:24;;;;;;;290.70;106.00;;;;;;;;;;4916228;29;20063;-86
2022/01/17 14:28:50;;;;;;;66.63;37.72;;;;;;;;;;4940584;29;20103;-86
2022/01/17 14:31:16;;;;;;;93.35;43.60;;;;;;;;;;4923564;29;20044;-86
2022/01/17 14:33:45;;;;;;;71.30;36.08;;;;;;;;;;4940369;29;20304;-86
2022/01/17 14:36:14;;;;;;;78.25;37.38;;;;;;;;;;4940513;29;20080;-87
2022/01/17 14:38:42;;;;;;;94.60;44.75;;;;;;;;;;4940023;29;20414;-87
2022/01/17 14:41:13;;;;;;;143.82;58.60;;;;;;;;;;4940254;29;20347;-86
2022/01/17 14:43:41;;;;;;;88.68;40.97;;;;;;;;;;4923142;29;20506;-87
2022/01/17 14:46:08;;;;;;;120.28;53.42;;;;;;;;;;4940328;29;20059;-87
2022/01/17 14:48:38;;;;;;;98.30;44.20;;;;;;;;;;4940343;29;20024;-87
2022/01/17 14:51:26;;;;;;;138.98;58.70;;;;;;;;;;4940416;29;20028;-86
2022/01/17 14:53:57;;;;;;;329.33;126.47;;;;;;;;;;4940125;29;20058;-87
2022/01/17 15:04:37;;;;;;;95.88;46.50;;;;;;;;;;4881763;29;20041;-87
2022/01/17 15:07:04;;;;;;;58.53;32.88;;;;;;;;;;4881564;29;20347;-87
2022/01/17 15:09:30;;;;;;;60.70;34.17;;;;;;;;;;4881610;29;20056;-87
2022/01/17 15:11:56;;;;;;;59.03;32.13;;;;;;;;;;4881804;29;20029;-86
2022/01/17 15:14:23;;;;;;;71.68;35.92;;;;;;;;;;4881855;29;20032;-85
2022/01/17 15:16:49;;;;;;;51.22;29.13;;;;;;;;;;4881983;29;20458;-87
2022/01/17 15:19:15;;;;;;;52.35;28.88;;;;;;;;;;4881818;29;20033;-87
2022/01/17 15:21:41;;;;;;;44.65;26.27;;;;;;;;;;4881909;29;20135;-86
2022/01/17 15:24:08;;;;;;;43.28;25.65;;;;;;;;;;4881435;29;20041;-87
2022/01/17 15:26:35;;;;;;;46.58;27.42;;;;;;;;;;4882748;29;20029;-87
2022/01/17 15:29:02;;;;;;;51.97;29.55;;;;;;;;;;4885501;29;20085;-86
2022/01/17 15:31:29;;;;;;;50.58;30.88;;;;;;;;;;4885281;29;20066;-87
2022/01/17 15:34:00;;;;;;;50.72;32.03;;;;;;;;;;4885006;29;20053;-87
2022/01/17 15:36:26;;;;;;;60.10;34.78;;;;;;;;;;4885319;29;20029;-87
2022/01/17 15:38:52;;;;;;;56.15;32.95;;;;;;;;;;4885055;29;20130;-87
2022/01/17 15:41:18;;;;;;;55.65;33.22;;;;;;;;;;4906574;29;20038;-88
2022/01/17 15:43:45;;;;;;;54.67;33.53;;;;;;;;;;4943483;29;20059;-87
2022/01/17 15:46:12;;;;;;;53.85;32.28;;;;;;;;;;4943276;29;20445;-88
2022/01/17 15:48:39;;;;;;;54.80;32.55;;;;;;;;;;4943080;29;20055;-87
2022/01/17 15:51:06;;;;;;;56.38;32.22;;;;;;;;;;4942776;29;20416;-88
2022/01/17 15:53:32;;;;;;;61.47;34.63;;;;;;;;;;4924889;29;20063;-87
2022/01/17 15:55:59;;;;;;;58.85;33.95;;;;;;;;;;4943112;29;20038;-89
2022/01/17 15:58:25;;;;;;;49.70;30.65;;;;;;;;;;4943163;29;20059;-88
2022/01/17 16:00:51;;;;;;;50.72;29.83;;;;;;;;;;4942275;29;20028;-87
2022/01/17 16:03:17;;;;;;;52.45;32.25;;;;;;;;;;4942927;29;20418;-86
2022/01/17 16:05:44;;;;;;;49.83;29.38;;;;;;;;;;4926134;29;20070;-87
2022/01/17 16:08:10;;;;;;;51.58;30.90;;;;;;;;;;4942760;29;20027;-87
2022/01/17 16:10:38;;;;;;;49.40;29.42;;;;;;;;;;4943165;29;20032;-87
2022/01/17 16:13:04;;;;;;;71.55;35.05;;;;;;;;;;4943155;29;20047;-87
2022/01/17 16:15:31;;;;;;;74.07;36.33;;;;;;;;;;4942690;29;20031;-86
2022/01/17 16:17:57;;;;;;;293.25;105.35;;;;;;;;;;4942904;29;20107;-87
2022/01/17 16:20:27;;;;;;;58.33;32.70;;;;;;;;;;4942685;29;20027;-87
2022/01/17 16:22:53;;;;;;;124.65;50.95;;;;;;;;;;4925970;29;20036;-87
2022/01/17 16:25:19;;;;;;;55.63;31.23;;;;;;;;;;4942512;29;20024;-88
2022/01/17 16:27:46;;;;;;;83.25;39.53;;;;;;;;;;4942726;29;20095;-86
2022/01/17 16:30:12;;;;;;;48.95;28.10;;;;;;;;;;4925401;29;20457;-86
2022/01/17 16:32:38;;;;;;;50.92;27.67;;;;;;;;;;4942725;29;20050;-87
2022/01/17 16:35:05;;;;;;;55.78;28.60;;;;;;;;;;4925402;29;20059;-87
2022/01/17 16:37:31;;;;;;;41.13;23.90;;;;;;;;;;4941929;29;20022;-86
2022/01/17 16:39:57;;;;;;;55.80;28.60;;;;;;;;;;4942066;29;20030;-87
2022/01/17 16:42:24;;;;;;;73.50;35.05;;;;;;;;;;4925441;29;20032;-86
2022/01/17 16:44:50;;;;;;;79.38;37.67;;;;;;;;;;4925494;29;20043;-87
2022/01/17 16:47:16;;;;;;;44.80;25.08;;;;;;;;;;4942353;29;20110;-87
2022/01/17 16:49:42;;;;;;;44.40;25.83;;;;;;;;;;4925450;29;20446;-87
2022/01/17 16:52:10;;;;;;;74.45;33.63;;;;;;;;;;4942019;29;20028;-87
2022/01/17 16:54:36;;;;;;;93.25;37.28;;;;;;;;;;4925346;29;20410;-87
2022/01/17 16:57:02;;;;;;;97.03;39.53;;;;;;;;;;4942386;29;20126;-88
2022/01/17 16:59:28;;;;;;;51.00;25.83;;;;;;;;;;4942234;29;20035;-87
2022/01/17 17:01:54;;;;;;;42.60;24.95;;;;;;;;;;4941847;29;20035;-87
2022/01/17 17:04:22;;;;;;;42.17;24.55;;;;;;;;;;4941581;29;20040;-87
2022/01/17 17:06:48;;;;;;;51.47;27.58;;;;;;;;;;4941777;29;20114;-87
2022/01/17 17:09:14;;;;;;;49.50;29.67;;;;;;;;;;4941915;29;20028;-85
2022/01/17 17:11:40;;;;;;;49.38;28.92;;;;;;;;;;4941932;29;20024;-86
2022/01/17 17:14:06;;;;;;;63.55;33.13;;;;;;;;;;4941762;29;20028;-87
2022/01/17 17:16:32;;;;;;;56.90;30.90;;;;;;;;;;4941046;29;20418;-90
2022/01/17 17:19:00;;;;;;;60.65;33.13;;;;;;;;;;4919677;29;20130;-88
2022/01/17 17:21:26;;;;;;;53.90;29.55;;;;;;;;;;4941586;29;20020;-88
2022/01/17 17:23:52;;;;;;;51.20;29.48;;;;;;;;;;4924243;29;20032;-90
2022/01/17 17:26:37;;;;;;;50.25;30.60;;;;;;;;;;4923690;29;20530;-84
2022/01/17 17:29:04;;;;;;;83.00;32.75;;;;;;;;;;4933747;29;20032;-84
2022/01/17 17:31:30;;;;;;;76.45;36.03;;;;;;;;;;4923365;29;20044;-85
2022/01/17 17:33:56;;;;;;;90.78;40.00;;;;;;;;;;4940485;29;20062;-91
2022/01/17 17:36:23;;;;;;;120.50;48.13;;;;;;;;;;4922717;29;20062;-85
2022/01/17 17:38:49;;;;;;;185.30;80.53;;;;;;;;;;4936683;29;20039;-85
2022/01/17 17:41:15;;;;;;;56.85;30.83;;;;;;;;;;4940782;29;20115;-85
2022/01/17 17:43:41;;;;;;;70.30;35.88;;;;;;;;;;4941113;29;20028;-85
2022/01/17 17:46:08;;;;;;;58.13;31.85;;;;;;;;;;4920721;29;20330;-84
2022/01/17 17:48:34;;;;;;;89.38;42.40;;;;;;;;;;4923688;29;20376;-85
2022/01/17 17:51:04;;;;;;;67.70;32.58;;;;;;;;;;4923371;29;20433;-85
2022/01/17 17:53:30;;;;;;;68.50;33.63;;;;;;;;;;4940812;29;20085;-85
2022/01/17 17:55:56;;;;;;;59.00;28.02;;;;;;;;;;4941136;29;20052;-85
2022/01/17 17:58:22;;;;;;;69.57;30.48;;;;;;;;;;4940571;29;20026;-85
2022/01/17 18:00:48;;;;;;;64.40;30.33;;;;;;;;;;4940928;29;20023;-85
2022/01/17 18:03:14;;;;;;;97.68;39.15;;;;;;;;;;4940997;29;20042;-85
2022/01/17 18:05:47;;;;;;;148.90;59.17;;;;;;;;;;4940572;29;20032;-85
2022/01/17 18:08:13;;;;;;;138.13;56.30;;;;;;;;;;4923836;29;20092;-85
2022/01/17 18:10:39;;;;;;;55.20;27.38;;;;;;;;;;4940664;29;20111;-85
2022/01/17 18:13:07;;;;;;;44.65;25.00;;;;;;;;;;4940541;29;20059;-85
2022/01/17 18:15:33;;;;;;;75.10;34.97;;;;;;;;;;4923860;29;20478;-85
2022/01/17 18:18:01;;;;;;;48.40;25.52;;;;;;;;;;4940499;29;20118;-85
2022/01/17 18:20:27;;;;;;;53.58;27.15;;;;;;;;;;4940579;29;20028;-85
2022/01/17 18:22:53;;;;;;;97.50;41.15;;;;;;;;;;4940306;29;20020;-85
2022/01/17 18:25:19;;;;;;;85.35;37.10;;;;;;;;;;4940350;29;20436;-85
2022/01/17 18:27:45;;;;;;;51.40;27.77;;;;;;;;;;4923601;29;20036;-86
2022/01/17 18:30:11;;;;;;;76.57;40.13;;;;;;;;;;4940467;29;20057;-85
2022/01/17 18:32:38;;;;;;;57.50;31.83;;;;;;;;;;4940382;29;20159;-86
2022/01/17 18:35:05;;;;;;;52.42;26.25;;;;;;;;;;4940077;29;20055;-85
2022/01/17 18:37:33;;;;;;;43.25;25.52;;;;;;;;;;4923508;29;20054;-85
2022/01/17 18:39:59;;;;;;;34.83;19.40;;;;;;;;;;4940284;29;20032;-85
2022/01/17 18:42:26;;;;;;;38.72;19.10;;;;;;;;;;4939864;29;20046;-85
2022/01/17 18:44:53;;;;;;;31.27;17.50;;;;;;;;;;4940342;29;20083;-86
2022/01/17 18:47:19;;;;;;;31.48;16.38;;;;;;;;;;4923437;29;20078;-85
2022/01/17 18:49:45;;;;;;;26.40;15.15;;;;;;;;;;4940216;29;20024;-86
2022/01/17 18:52:20;;;;;;;23.30;13.35;;;;;;;;;;4940108;29;20038;-85
2022/01/17 18:54:46;;;;;;;26.95;15.30;;;;;;;;;;4940136;29;20049;-85
2022/01/17 18:57:12;;;;;;;31.20;15.68;;;;;;;;;;4924316;29;20107;-85
2022/01/17 18:59:38;;;;;;;28.92;16.65;;;;;;;;;;4910946;29;20099;-85
2022/01/17 19:02:06;;;;;;;25.88;15.48;;;;;;;;;;4924954;29;20032;-85
2022/01/17 19:04:33;;;;;;;24.52;15.25;;;;;;;;;;4943934;29;20452;-85
2022/01/17 19:06:59;;;;;;;29.48;17.08;;;;;;;;;;4943983;29;20055;-85
2022/01/17 19:09:26;;;;;;;26.23;15.18;;;;;;;;;;4943754;29;20024;-85
2022/01/17 19:11:53;;;;;;;25.02;15.98;;;;;;;;;;4943871;29;20028;-90
2022/01/17 19:14:19;;;;;;;26.63;16.08;;;;;;;;;;4944273;29;20028;-94
2022/01/17 19:16:50;;;;;;;27.50;15.65;;;;;;;;;;4944081;29;20024;-95
2022/01/17 19:19:23;;;;;;;21.70;13.63;;;;;;;;;;4944208;29;20072;-91
2022/01/17 19:21:50;;;;;;;;;;;;;;;;;;4944486;29;20355;-91
2022/01/17 19:24:17;;;;;;;21.38;12.98;;;;;;;;;;4943826;29;19913;-90
2022/01/17 19:26:45;;;;;;;21.30;13.60;;;;;;;;;;4943934;29;20033;-91
2022/01/17 19:29:11;;;;;;;19.13;12.57;;;;;;;;;;4926979;29;20036;-91
2022/01/17 19:31:37;;;;;;;19.23;11.98;;;;;;;;;;4943832;29;20028;-91
2022/01/17 19:34:04;;;;;;;22.02;13.63;;;;;;;;;;4943384;29;20481;-90
2022/01/17 19:36:30;;;;;;;24.55;15.45;;;;;;;;;;4943907;29;20028;-90
2022/01/17 19:38:56;;;;;;;35.85;21.17;;;;;;;;;;4943646;29;20019;-92
2022/01/17 19:41:23;;;;;;;47.30;25.67;;;;;;;;;;4943306;29;20024;-91
2022/01/17 19:43:49;;;;;;;20.73;13.13;;;;;;;;;;4943421;29;20036;-91
2022/01/17 19:46:15;;;;;;;13.73;9.32;;;;;;;;;;4943770;29;20036;-91
2022/01/17 19:48:41;;;;;;;17.20;8.70;;;;;;;;;;4926662;29;20337;-92
2022/01/17 19:51:07;;;;;;;14.57;9.95;;;;;;;;;;4943367;29;20483;-91
2022/01/17 19:53:34;;;;;;;11.80;7.50;;;;;;;;;;4943244;29;20459;-91